Terminal Aerodrome Forecast
Issued by NWS

Home | Current Version | Previous Version | Text Only | Print | Product List | Glossary On
Versions: 1 2 3 4 5 6 7 8 9 10 11 12 13 14 15 16 17 18 19 20 21 22 23 24 25 26 27 28 29 30 31 32 33 34 35 36 37 38 39
000
FTUS46 KEKA 011100
TAFCEC
TAF
KCEC 011125Z 0112/0212 VRB03KT 3SM BR SCT004
     FM011500 VRB05KT 4SM BR SCT004
     FM011800 32008KT P6SM SKC
     FM012100 34012G20KT P6SM SKC
     FM020300 35008KT P6SM SKC
     FM020900 VRB03KT 4SM BR SCT005=

USA.gov is the U.S. government's official web portal to all federal, state and local government web resources and services.